sensor_id;sensor_type;location;lat;lon;timestamp;pressure;altitude;pressure_sealevel;temperature;humidity
41688;BME280;27371;42.686;23.362;2022-10-14T00:04:00;165508.91;;;12.69;59.68
41688;BME280;27371;42.686;23.362;2022-10-14T00:06:28;165500.91;;;12.66;59.50
41688;BME280;27371;42.686;23.362;2022-10-14T00:08:57;165514.28;;;12.72;59.14
41688;BME280;27371;42.686;23.362;2022-10-14T00:11:28;165514.28;;;12.72;59.19
41688;BME280;27371;42.686;23.362;2022-10-14T00:14:00;165514.28;;;12.72;59.43
41688;BME280;27371;42.686;23.362;2022-10-14T00:16:29;165522.31;;;12.75;59.64
41688;BME280;27371;42.686;23.362;2022-10-14T00:18:55;165507.59;;;12.69;59.83
41688;BME280;27371;42.686;23.362;2022-10-14T00:21:21;165523.63;;;12.75;59.49
41688;BME280;27371;42.686;23.362;2022-10-14T00:23:47;165524.97;;;12.76;59.98
41688;BME280;27371;42.686;23.362;2022-10-14T00:26:21;165506.25;;;12.68;60.20
41688;BME280;27371;42.686;23.362;2022-10-14T00:28:48;165480.81;;;12.59;60.39
41688;BME280;27371;42.686;23.362;2022-10-14T00:31:14;165502.22;;;12.67;60.54
41688;BME280;27371;42.686;23.362;2022-10-14T00:33:40;165491.56;;;12.63;60.91
41688;BME280;27371;42.686;23.362;2022-10-14T00:36:06;165472.81;;;12.56;61.26
41688;BME280;27371;42.686;23.362;2022-10-14T00:38:32;165478.16;;;12.58;61.40
41688;BME280;27371;42.686;23.362;2022-10-14T00:40:58;165482.16;;;12.59;61.78
41688;BME280;27371;42.686;23.362;2022-10-14T00:43:25;165460.75;;;12.51;62.02
41688;BME280;27371;42.686;23.362;2022-10-14T00:45:51;165471.47;;;12.55;62.57
41688;BME280;27371;42.686;23.362;2022-10-14T00:48:19;165466.09;;;12.53;62.55
41688;BME280;27371;42.686;23.362;2022-10-14T00:50:48;165391.22;;;12.24;63.04
41688;BME280;27371;42.686;23.362;2022-10-14T00:53:15;165462.13;;;12.52;63.13
41688;BME280;27371;42.686;23.362;2022-10-14T00:55:41;165467.44;;;12.54;63.43
41688;BME280;27371;42.686;23.362;2022-10-14T00:58:07;165472.81;;;12.56;63.73
41688;BME280;27371;42.686;23.362;2022-10-14T01:00:33;165475.44;;;12.57;64.00
41688;BME280;27371;42.686;23.362;2022-10-14T01:02:59;165476.84;;;12.57;63.99
41688;BME280;27371;42.686;23.362;2022-10-14T01:05:30;165448.72;;;12.46;64.35
41688;BME280;27371;42.686;23.362;2022-10-14T01:10:42;165444.69;;;12.45;64.96
41688;BME280;27371;42.686;23.362;2022-10-14T01:13:36;165466.09;;;12.53;65.13
41688;BME280;27371;42.686;23.362;2022-10-14T01:18:41;165472.81;;;12.56;65.57
41688;BME280;27371;42.686;23.362;2022-10-14T01:32:15;165436.69;;;12.42;66.28
41688;BME280;27371;42.686;23.362;2022-10-14T01:34:52;165413.94;;;12.33;66.25
41688;BME280;27371;42.686;23.362;2022-10-14T01:37:24;165432.63;;;12.40;66.48
41688;BME280;27371;42.686;23.362;2022-10-14T01:39:55;165421.97;;;12.36;66.83
41688;BME280;27371;42.686;23.362;2022-10-14T01:42:26;165431.31;;;12.40;66.76
41688;BME280;27371;42.686;23.362;2022-10-14T01:44:55;165434.03;;;12.41;67.19
41688;BME280;27371;42.686;23.362;2022-10-14T01:47:25;165431.31;;;12.40;67.64
41688;BME280;27371;42.686;23.362;2022-10-14T01:49:56;165413.94;;;12.33;68.07
41688;BME280;27371;42.686;23.362;2022-10-14T01:52:27;165415.28;;;12.34;68.35
41688;BME280;27371;42.686;23.362;2022-10-14T01:55:00;165392.53;;;12.25;68.49
41688;BME280;27371;42.686;23.362;2022-10-14T01:57:29;165361.78;;;12.13;68.99
41688;BME280;27371;42.686;23.362;2022-10-14T01:59:57;165400.56;;;12.28;68.79
41688;BME280;27371;42.686;23.362;2022-10-14T02:02:23;165395.19;;;12.26;68.75
41688;BME280;27371;42.686;23.362;2022-10-14T02:04:50;165395.19;;;12.26;68.94
41688;BME280;27371;42.686;23.362;2022-10-14T02:07:21;165387.16;;;12.23;69.21
41688;BME280;27371;42.686;23.362;2022-10-14T02:12:25;165371.13;;;12.17;69.39
41688;BME280;27371;42.686;23.362;2022-10-14T02:15:12;165376.50;;;12.19;69.30
41688;BME280;27371;42.686;23.362;2022-10-14T02:20:31;165320.31;;;11.97;69.42
41688;BME280;27371;42.686;23.362;2022-10-14T02:23:04;165349.72;;;12.09;69.58
41688;BME280;27371;42.686;23.362;2022-10-14T02:25:34;165324.28;;;11.99;69.53
41688;BME280;27371;42.686;23.362;2022-10-14T02:28:02;165341.72;;;12.06;69.61
41688;BME280;27371;42.686;23.362;2022-10-14T02:30:30;165348.41;;;12.08;69.33
41688;BME280;27371;42.686;23.362;2022-10-14T02:32:59;165339.00;;;12.04;69.83
41688;BME280;27371;42.686;23.362;2022-10-14T02:35:25;165332.38;;;12.02;69.67
41688;BME280;27371;42.686;23.362;2022-10-14T02:37:52;165328.31;;;12.00;70.07
41688;BME280;27371;42.686;23.362;2022-10-14T02:40:28;165328.31;;;12.00;70.14
41688;BME280;27371;42.686;23.362;2022-10-14T02:42:55;165300.25;;;11.90;70.40
41688;BME280;27371;42.686;23.362;2022-10-14T02:45:26;165341.72;;;12.06;70.13
41688;BME280;27371;42.686;23.362;2022-10-14T02:47:52;165289.56;;;11.86;70.00
41688;BME280;27371;42.686;23.362;2022-10-14T02:50:18;165328.31;;;12.00;70.46
41688;BME280;27371;42.686;23.362;2022-10-14T02:52:44;165304.28;;;11.91;70.29
41688;BME280;27371;42.686;23.362;2022-10-14T02:55:09;165305.59;;;11.92;70.53
41688;BME280;27371;42.686;23.362;2022-10-14T02:57:35;165302.91;;;11.91;70.29
41688;BME280;27371;42.686;23.362;2022-10-14T03:00:00;165273.44;;;11.79;70.90
41688;BME280;27371;42.686;23.362;2022-10-14T03:02:26;165252.03;;;11.71;70.93
41688;BME280;27371;42.686;23.362;2022-10-14T03:04:51;165277.47;;;11.81;70.60
41688;BME280;27371;42.686;23.362;2022-10-14T03:07:17;165265.41;;;11.76;71.11
41688;BME280;27371;42.686;23.362;2022-10-14T03:09:42;165256.06;;;11.73;71.01
41688;BME280;27371;42.686;23.362;2022-10-14T03:12:08;165248.03;;;11.70;71.12
41688;BME280;27371;42.686;23.362;2022-10-14T03:14:34;165265.41;;;11.76;71.09
41688;BME280;27371;42.686;23.362;2022-10-14T03:16:59;165253.41;;;11.72;71.29
41688;BME280;27371;42.686;23.362;2022-10-14T03:19:24;165237.31;;;11.66;71.23
41688;BME280;27371;42.686;23.362;2022-10-14T03:21:50;165226.66;;;11.62;71.23
41688;BME280;27371;42.686;23.362;2022-10-14T03:24:15;165181.19;;;11.44;71.46
41688;BME280;27371;42.686;23.362;2022-10-14T03:26:41;165252.03;;;11.71;71.25
41688;BME280;27371;42.686;23.362;2022-10-14T03:29:07;165257.38;;;11.73;71.13
41688;BME280;27371;42.686;23.362;2022-10-14T03:31:33;165246.72;;;11.69;71.26
41688;BME280;27371;42.686;23.362;2022-10-14T03:33:58;165206.59;;;11.54;71.31
41688;BME280;27371;42.686;23.362;2022-10-14T03:36:24;165232.00;;;11.64;71.21
41688;BME280;27371;42.686;23.362;2022-10-14T03:38:49;165211.94;;;11.56;71.51
41688;BME280;27371;42.686;23.362;2022-10-14T03:41:15;165197.25;;;11.50;71.60
41688;BME280;27371;42.686;23.362;2022-10-14T03:43:40;165237.31;;;11.66;71.13
41688;BME280;27371;42.686;23.362;2022-10-14T03:46:06;165244.00;;;11.68;71.04
41688;BME280;27371;42.686;23.362;2022-10-14T03:48:31;165165.13;;;11.38;71.26
41688;BME280;27371;42.686;23.362;2022-10-14T03:50:57;165217.31;;;11.58;71.07
41688;BME280;27371;42.686;23.362;2022-10-14T03:53:22;165233.34;;;11.64;71.37
41688;BME280;27371;42.686;23.362;2022-10-14T03:55:48;165227.97;;;11.62;71.60
41688;BME280;27371;42.686;23.362;2022-10-14T03:58:13;165234.66;;;11.65;71.03
41688;BME280;27371;42.686;23.362;2022-10-14T04:00:39;165218.63;;;11.58;71.33
41688;BME280;27371;42.686;23.362;2022-10-14T04:03:04;165194.53;;;11.49;71.34
41688;BME280;27371;42.686;23.362;2022-10-14T04:05:30;165183.84;;;11.45;71.45
41688;BME280;27371;42.686;23.362;2022-10-14T04:07:58;165201.22;;;11.52;71.66
41688;BME280;27371;42.686;23.362;2022-10-14T04:10:24;165211.94;;;11.56;71.32
41688;BME280;27371;42.686;23.362;2022-10-14T04:12:52;165219.97;;;11.59;71.63
41688;BME280;27371;42.686;23.362;2022-10-14T04:15:17;165221.28;;;11.59;71.29
41688;BME280;27371;42.686;23.362;2022-10-14T04:17:43;165215.94;;;11.57;71.25
41688;BME280;27371;42.686;23.362;2022-10-14T04:20:09;165213.28;;;11.56;71.34
41688;BME280;27371;42.686;23.362;2022-10-14T04:22:34;165167.81;;;11.39;71.50
41688;BME280;27371;42.686;23.362;2022-10-14T04:25:00;165177.16;;;11.43;71.69
41688;BME280;27371;42.686;23.362;2022-10-14T04:27:25;165179.81;;;11.44;71.50
41688;BME280;27371;42.686;23.362;2022-10-14T04:29:51;165117.03;;;11.20;71.75
41688;BME280;27371;42.686;23.362;2022-10-14T04:32:17;165154.44;;;11.34;71.49
41688;BME280;27371;42.686;23.362;2022-10-14T04:34:43;165154.44;;;11.34;71.57
41688;BME280;27371;42.686;23.362;2022-10-14T04:37:08;165179.81;;;11.44;71.42
41688;BME280;27371;42.686;23.362;2022-10-14T04:39:34;165154.44;;;11.34;71.50
41688;BME280;27371;42.686;23.362;2022-10-14T04:41:59;165139.75;;;11.28;71.77
41688;BME280;27371;42.686;23.362;2022-10-14T04:44:25;165133.06;;;11.26;71.76
41688;BME280;27371;42.686;23.362;2022-10-14T04:46:50;165137.03;;;11.27;71.99
41688;BME280;27371;42.686;23.362;2022-10-14T04:49:16;165159.81;;;11.36;71.54
41688;BME280;27371;42.686;23.362;2022-10-14T04:51:42;165121.00;;;11.21;71.81
41688;BME280;27371;42.686;23.362;2022-10-14T04:54:08;165134.38;;;11.26;71.54
41688;BME280;27371;42.686;23.362;2022-10-14T04:56:34;165150.41;;;11.32;71.55
41688;BME280;27371;42.686;23.362;2022-10-14T04:58:59;165153.13;;;11.33;71.49
41688;BME280;27371;42.686;23.362;2022-10-14T05:01:25;165109.00;;;11.17;71.43
41688;BME280;27371;42.686;23.362;2022-10-14T05:03:50;165163.78;;;11.37;71.77
41688;BME280;27371;42.686;23.362;2022-10-14T05:06:16;165167.81;;;11.39;70.90
41688;BME280;27371;42.686;23.362;2022-10-14T05:08:42;165166.50;;;11.39;70.92
41688;BME280;27371;42.686;23.362;2022-10-14T05:11:08;165174.50;;;11.42;70.63
41688;BME280;27371;42.686;23.362;2022-10-14T05:13:34;165179.81;;;11.44;70.40
41688;BME280;27371;42.686;23.362;2022-10-14T05:15:59;165163.78;;;11.37;70.14
41688;BME280;27371;42.686;23.362;2022-10-14T05:18:26;165213.28;;;11.56;69.84
41688;BME280;27371;42.686;23.362;2022-10-14T05:20:51;165189.22;;;11.47;69.71
41688;BME280;27371;42.686;23.362;2022-10-14T05:23:17;165217.31;;;11.58;69.51
41688;BME280;27371;42.686;23.362;2022-10-14T05:25:42;165197.25;;;11.50;69.39
41688;BME280;27371;42.686;23.362;2022-10-14T05:28:08;165203.94;;;11.53;69.45
41688;BME280;27371;42.686;23.362;2022-10-14T05:30:33;165222.63;;;11.60;69.64
41688;BME280;27371;42.686;23.362;2022-10-14T05:32:59;165237.31;;;11.66;69.73
41688;BME280;27371;42.686;23.362;2022-10-14T05:35:24;165248.03;;;11.70;69.68
41688;BME280;27371;42.686;23.362;2022-10-14T05:37:56;165236.00;;;11.65;69.44
41688;BME280;27371;42.686;23.362;2022-10-14T05:40:22;165236.00;;;11.65;69.68
41688;BME280;27371;42.686;23.362;2022-10-14T05:42:48;165241.34;;;11.67;69.27
41688;BME280;27371;42.686;23.362;2022-10-14T05:45:14;165229.31;;;11.63;69.16
41688;BME280;27371;42.686;23.362;2022-10-14T05:47:42;165286.81;;;11.85;69.12
41688;BME280;27371;42.686;23.362;2022-10-14T05:50:08;165264.09;;;11.76;68.88
41688;BME280;27371;42.686;23.362;2022-10-14T05:52:34;165290.88;;;11.86;68.81
41688;BME280;27371;42.686;23.362;2022-10-14T05:55:01;165289.56;;;11.86;68.96
41688;BME280;27371;42.686;23.362;2022-10-14T05:57:27;165292.22;;;11.87;69.36
41688;BME280;27371;42.686;23.362;2022-10-14T05:59:55;165280.13;;;11.82;69.28
41688;BME280;27371;42.686;23.362;2022-10-14T06:02:21;165300.25;;;11.90;69.62
41688;BME280;27371;42.686;23.362;2022-10-14T06:04:46;165290.88;;;11.86;70.18
41688;BME280;27371;42.686;23.362;2022-10-14T06:07:12;165281.44;;;11.82;70.21
41688;BME280;27371;42.686;23.362;2022-10-14T06:09:37;165297.59;;;11.89;70.31
41688;BME280;27371;42.686;23.362;2022-10-14T06:12:03;165302.91;;;11.91;70.68
41688;BME280;27371;42.686;23.362;2022-10-14T06:14:29;165306.94;;;11.92;70.73
41688;BME280;27371;42.686;23.362;2022-10-14T06:16:55;165333.69;;;12.02;70.31
41688;BME280;27371;42.686;23.362;2022-10-14T06:19:20;165300.25;;;11.90;69.37
41688;BME280;27371;42.686;23.362;2022-10-14T06:21:46;165343.03;;;12.06;69.24
41688;BME280;27371;42.686;23.362;2022-10-14T06:24:12;165360.41;;;12.13;68.37
41688;BME280;27371;42.686;23.362;2022-10-14T06:26:38;165357.75;;;12.12;67.91
41688;BME280;27371;42.686;23.362;2022-10-14T06:29:04;165341.72;;;12.06;67.81
41688;BME280;27371;42.686;23.362;2022-10-14T06:31:31;165348.41;;;12.08;68.09
41688;BME280;27371;42.686;23.362;2022-10-14T06:33:56;165359.06;;;12.12;67.79
41688;BME280;27371;42.686;23.362;2022-10-14T06:36:22;165332.38;;;12.02;68.23
41688;BME280;27371;42.686;23.362;2022-10-14T06:38:47;165375.13;;;12.18;67.82
41688;BME280;27371;42.686;23.362;2022-10-14T06:41:13;165357.75;;;12.12;67.59
41688;BME280;27371;42.686;23.362;2022-10-14T06:43:39;165351.06;;;12.09;67.93
41688;BME280;27371;42.686;23.362;2022-10-14T06:46:04;165397.91;;;12.27;67.72
41688;BME280;27371;42.686;23.362;2022-10-14T06:48:30;165415.28;;;12.34;66.45
41688;BME280;27371;42.686;23.362;2022-10-14T06:50:59;165423.28;;;12.37;66.58
41688;BME280;27371;42.686;23.362;2022-10-14T06:53:26;165434.03;;;12.41;66.04
41688;BME280;27371;42.686;23.362;2022-10-14T06:56:03;165472.81;;;12.56;65.74
41688;BME280;27371;42.686;23.362;2022-10-14T06:58:30;165488.84;;;12.62;65.42
41688;BME280;27371;42.686;23.362;2022-10-14T07:01:03;165498.25;;;12.65;65.00
41688;BME280;27371;42.686;23.362;2022-10-14T07:03:29;165546.38;;;12.84;64.28
41688;BME280;27371;42.686;23.362;2022-10-14T07:05:54;165545.03;;;12.83;63.98
41688;BME280;27371;42.686;23.362;2022-10-14T07:08:20;165569.13;;;12.92;64.18
41688;BME280;27371;42.686;23.362;2022-10-14T07:10:46;165577.13;;;12.96;64.48
41688;BME280;27371;42.686;23.362;2022-10-14T07:13:12;165578.53;;;12.96;63.62
41688;BME280;27371;42.686;23.362;2022-10-14T07:15:38;165518.28;;;12.73;63.91
41688;BME280;27371;42.686;23.362;2022-10-14T07:18:04;165601.25;;;13.05;63.78
41688;BME280;27371;42.686;23.362;2022-10-14T07:20:30;165595.91;;;13.03;64.07
41688;BME280;27371;42.686;23.362;2022-10-14T07:22:56;165619.97;;;13.12;63.28
41688;BME280;27371;42.686;23.362;2022-10-14T07:25:22;165632.03;;;13.17;62.40
41688;BME280;27371;42.686;23.362;2022-10-14T07:27:47;165595.91;;;13.03;62.13
41688;BME280;27371;42.686;23.362;2022-10-14T07:30:12;165642.75;;;13.21;61.54
41688;BME280;27371;42.686;23.362;2022-10-14T07:32:38;165607.97;;;13.07;62.17
41688;BME280;27371;42.686;23.362;2022-10-14T07:35:04;165599.94;;;13.04;62.50
41688;BME280;27371;42.686;23.362;2022-10-14T07:37:30;165595.91;;;13.03;62.73
41688;BME280;27371;42.686;23.362;2022-10-14T07:39:56;165567.78;;;12.92;63.35
41688;BME280;27371;42.686;23.362;2022-10-14T07:42:21;165594.56;;;13.02;62.68
41688;BME280;27371;42.686;23.362;2022-10-14T07:44:47;165581.19;;;12.97;62.19
41688;BME280;27371;42.686;23.362;2022-10-14T07:47:12;165590.53;;;13.01;61.62
41688;BME280;27371;42.686;23.362;2022-10-14T07:49:38;165625.34;;;13.14;61.26
41688;BME280;27371;42.686;23.362;2022-10-14T07:52:04;165613.31;;;13.09;61.98
41688;BME280;27371;42.686;23.362;2022-10-14T07:54:29;165561.09;;;12.89;62.22
41688;BME280;27371;42.686;23.362;2022-10-14T07:56:57;165614.66;;;13.10;61.63
41688;BME280;27371;42.686;23.362;2022-10-14T07:59:24;165539.69;;;12.81;61.86
41688;BME280;27371;42.686;23.362;2022-10-14T08:01:50;165637.41;;;13.19;59.64
41688;BME280;27371;42.686;23.362;2022-10-14T08:04:16;165644.09;;;13.21;58.51
41688;BME280;27371;42.686;23.362;2022-10-14T08:06:42;165674.91;;;13.33;58.04
41688;BME280;27371;42.686;23.362;2022-10-14T08:09:09;165688.31;;;13.38;57.44
41688;BME280;27371;42.686;23.362;2022-10-14T08:11:36;165680.28;;;13.35;57.32
41688;BME280;27371;42.686;23.362;2022-10-14T08:14:02;165678.94;;;13.34;57.89
41688;BME280;27371;42.686;23.362;2022-10-14T08:16:31;165720.41;;;13.50;58.75
41688;BME280;27371;42.686;23.362;2022-10-14T08:18:59;165709.72;;;13.46;59.20
41688;BME280;27371;42.686;23.362;2022-10-14T08:21:25;165674.91;;;13.33;59.09
41688;BME280;27371;42.686;23.362;2022-10-14T08:23:52;165678.94;;;13.34;59.12
41688;BME280;27371;42.686;23.362;2022-10-14T08:26:40;165686.97;;;13.38;58.78
41688;BME280;27371;42.686;23.362;2022-10-14T08:29:12;165695.00;;;13.41;57.98
41688;BME280;27371;42.686;23.362;2022-10-14T08:31:38;165717.75;;;13.49;57.48
41688;BME280;27371;42.686;23.362;2022-10-14T08:34:03;165743.16;;;13.59;56.78
41688;BME280;27371;42.686;23.362;2022-10-14T08:36:29;165756.56;;;13.64;56.29
41688;BME280;27371;42.686;23.362;2022-10-14T08:38:54;165775.31;;;13.71;56.19
41688;BME280;27371;42.686;23.362;2022-10-14T08:44:16;165811.47;;;13.85;54.92
41688;BME280;27371;42.686;23.362;2022-10-14T08:49:23;165859.69;;;14.03;56.13
41688;BME280;27371;42.686;23.362;2022-10-14T08:51:56;165852.97;;;14.01;56.71
41688;BME280;27371;42.686;23.362;2022-10-14T08:54:45;165850.28;;;14.00;56.57
41688;BME280;27371;42.686;23.362;2022-10-14T08:57:15;165855.66;;;14.02;57.18
41688;BME280;27371;42.686;23.362;2022-10-14T08:59:42;165828.84;;;13.92;56.88
41688;BME280;27371;42.686;23.362;2022-10-14T09:04:59;165875.75;;;14.10;52.89
41688;BME280;27371;42.686;23.362;2022-10-14T09:07:27;165826.19;;;13.91;53.89
41688;BME280;27371;42.686;23.362;2022-10-14T09:09:57;165823.53;;;13.90;53.91
41688;BME280;27371;42.686;23.362;2022-10-14T09:12:27;165866.38;;;14.06;54.39
41688;BME280;27371;42.686;23.362;2022-10-14T09:17:45;165867.72;;;14.07;55.59
41688;BME280;27371;42.686;23.362;2022-10-14T09:20:24;165885.09;;;14.13;55.64
41688;BME280;27371;42.686;23.362;2022-10-14T09:25:21;165898.50;;;14.18;55.02
41688;BME280;27371;42.686;23.362;2022-10-14T09:27:47;165922.59;;;14.27;53.52
41688;BME280;27371;42.686;23.362;2022-10-14T09:30:16;165925.28;;;14.29;53.69
41688;BME280;27371;42.686;23.362;2022-10-14T09:32:47;165927.97;;;14.30;54.76
41688;BME280;27371;42.686;23.362;2022-10-14T09:37:45;165851.66;;;14.00;56.16
41688;BME280;27371;42.686;23.362;2022-10-14T09:45:20;165956.09;;;14.40;56.02
41688;BME280;27371;42.686;23.362;2022-10-14T09:47:55;165958.75;;;14.41;56.28
41688;BME280;27371;42.686;23.362;2022-10-14T09:50:41;165964.13;;;14.43;56.38
41688;BME280;27371;42.686;23.362;2022-10-14T09:53:38;165976.19;;;14.48;55.67
41688;BME280;27371;42.686;23.362;2022-10-14T09:56:07;165978.84;;;14.49;55.06
41688;BME280;27371;42.686;23.362;2022-10-14T09:58:49;165989.63;;;14.53;55.64
41688;BME280;27371;42.686;23.362;2022-10-14T10:01:23;165977.50;;;14.48;55.30
41688;BME280;27371;42.686;23.362;2022-10-14T10:03:53;165988.25;;;14.53;55.30
41688;BME280;27371;42.686;23.362;2022-10-14T10:06:22;166025.81;;;14.67;54.25
41688;BME280;27371;42.686;23.362;2022-10-14T10:14:31;166112.88;;;15.00;53.92
41688;BME280;27371;42.686;23.362;2022-10-14T10:19:34;166124.91;;;15.05;54.11
41688;BME280;27371;42.686;23.362;2022-10-14T10:24:44;166143.69;;;15.12;51.99
41688;BME280;27371;42.686;23.362;2022-10-14T10:27:44;166134.31;;;15.08;51.62
41688;BME280;27371;42.686;23.362;2022-10-14T10:35:56;166173.16;;;15.23;48.72
41688;BME280;27371;42.686;23.362;2022-10-14T10:38:44;166096.75;;;14.94;47.44
41688;BME280;27371;42.686;23.362;2022-10-14T10:41:41;166153.03;;;15.15;48.40
41688;BME280;27371;42.686;23.362;2022-10-14T10:46:57;166131.59;;;15.07;49.43
41688;BME280;27371;42.686;23.362;2022-10-14T10:52:47;166179.84;;;15.26;48.53
41688;BME280;27371;42.686;23.362;2022-10-14T10:58:00;166230.78;;;15.45;46.71
41688;BME280;27371;42.686;23.362;2022-10-14T11:00:37;166280.38;;;15.64;45.08
41688;BME280;27371;42.686;23.362;2022-10-14T11:06:19;166265.63;;;15.58;42.16
41688;BME280;27371;42.686;23.362;2022-10-14T11:09:13;166253.53;;;15.54;41.78
41688;BME280;27371;42.686;23.362;2022-10-14T11:12:07;166262.91;;;15.57;41.85
41688;BME280;27371;42.686;23.362;2022-10-14T11:17:27;166332.69;;;15.84;41.86
41688;BME280;27371;42.686;23.362;2022-10-14T11:20:19;166307.25;;;15.74;41.88
41688;BME280;27371;42.686;23.362;2022-10-14T11:28:27;166291.13;;;15.68;41.21
41688;BME280;27371;42.686;23.362;2022-10-14T11:39:49;166285.75;;;15.66;40.83
41688;BME280;27371;42.686;23.362;2022-10-14T11:42:26;166264.28;;;15.58;40.13
41688;BME280;27371;42.686;23.362;2022-10-14T11:45:49;166257.59;;;15.55;39.55
41688;BME280;27371;42.686;23.362;2022-10-14T11:51:05;166313.94;;;15.77;38.03
41688;BME280;27371;42.686;23.362;2022-10-14T11:53:46;166288.41;;;15.67;39.09
41688;BME280;27371;42.686;23.362;2022-10-14T11:59:33;166342.03;;;15.88;39.29
41688;BME280;27371;42.686;23.362;2022-10-14T12:02:12;166386.31;;;16.05;39.18
41688;BME280;27371;42.686;23.362;2022-10-14T12:04:42;166421.13;;;16.18;38.57
41688;BME280;27371;42.686;23.362;2022-10-14T12:07:17;166447.97;;;16.28;37.32
41688;BME280;27371;42.686;23.362;2022-10-14T12:09:48;166433.22;;;16.22;38.42
41688;BME280;27371;42.686;23.362;2022-10-14T12:12:17;166415.81;;;16.16;38.77
41688;BME280;27371;42.686;23.362;2022-10-14T12:14:46;166439.94;;;16.25;38.81
41688;BME280;27371;42.686;23.362;2022-10-14T12:17:30;166435.88;;;16.23;39.28
41688;BME280;27371;42.686;23.362;2022-10-14T12:20:23;166445.31;;;16.27;39.20
41688;BME280;27371;42.686;23.362;2022-10-14T12:22:46;166433.22;;;16.22;39.62
41688;BME280;27371;42.686;23.362;2022-10-14T12:25:16;166415.81;;;16.16;39.68
41688;BME280;27371;42.686;23.362;2022-10-14T12:27:44;166291.13;;;15.68;40.65
41688;BME280;27371;42.686;23.362;2022-10-14T12:30:30;166332.69;;;15.84;40.85
41688;BME280;27371;42.686;23.362;2022-10-14T12:33:02;166347.41;;;15.90;41.27
41688;BME280;27371;42.686;23.362;2022-10-14T12:38:16;166339.38;;;15.87;42.14
41688;BME280;27371;42.686;23.362;2022-10-14T12:40:42;166346.09;;;15.89;42.25
41688;BME280;27371;42.686;23.362;2022-10-14T12:43:26;166305.84;;;15.74;42.41
41688;BME280;27371;42.686;23.362;2022-10-14T12:46:00;166342.03;;;15.88;42.67
41688;BME280;27371;42.686;23.362;2022-10-14T12:48:33;166347.41;;;15.90;42.73
41688;BME280;27371;42.686;23.362;2022-10-14T12:51:15;166340.72;;;15.87;42.09
41688;BME280;27371;42.686;23.362;2022-10-14T12:53:51;166332.69;;;15.84;42.28
41688;BME280;27371;42.686;23.362;2022-10-14T12:56:30;166334.00;;;15.85;42.32
41688;BME280;27371;42.686;23.362;2022-10-14T12:58:58;166350.13;;;15.91;42.07
41688;BME280;27371;42.686;23.362;2022-10-14T13:01:29;166336.72;;;15.86;42.67
41688;BME280;27371;42.686;23.362;2022-10-14T13:04:02;166347.41;;;15.90;41.94
41688;BME280;27371;42.686;23.362;2022-10-14T13:06:37;166346.09;;;15.89;42.46
41688;BME280;27371;42.686;23.362;2022-10-14T13:14:31;166354.13;;;15.92;41.86
41688;BME280;27371;42.686;23.362;2022-10-14T13:16:58;166379.63;;;16.02;41.74
41688;BME280;27371;42.686;23.362;2022-10-14T13:22:00;166330.00;;;15.83;41.98
41688;BME280;27371;42.686;23.362;2022-10-14T13:24:30;166334.00;;;15.85;42.83
41688;BME280;27371;42.686;23.362;2022-10-14T13:35:47;166309.91;;;15.75;42.89
41688;BME280;27371;42.686;23.362;2022-10-14T13:38:18;166292.50;;;15.69;42.77
41688;BME280;27371;42.686;23.362;2022-10-14T13:40:53;166288.41;;;15.67;42.68
41688;BME280;27371;42.686;23.362;2022-10-14T13:46:01;166281.69;;;15.65;42.79
41688;BME280;27371;42.686;23.362;2022-10-14T13:48:29;166291.13;;;15.68;42.31
41688;BME280;27371;42.686;23.362;2022-10-14T13:54:36;166279.03;;;15.64;42.63
41688;BME280;27371;42.686;23.362;2022-10-14T13:56:36;166283.03;;;15.65;41.43
41688;BME280;27371;42.686;23.362;2022-10-14T13:59:15;166268.28;;;15.59;40.49
41688;BME280;27371;42.686;23.362;2022-10-14T14:01:42;166258.91;;;15.56;39.12
41688;BME280;27371;42.686;23.362;2022-10-14T14:04:14;166230.78;;;15.45;39.06
41688;BME280;27371;42.686;23.362;2022-10-14T14:06:44;166249.56;;;15.52;37.36
41688;BME280;27371;42.686;23.362;2022-10-14T14:09:19;166241.53;;;15.49;36.78
41688;BME280;27371;42.686;23.362;2022-10-14T14:11:46;166228.13;;;15.44;36.76
41688;BME280;27371;42.686;23.362;2022-10-14T14:16:47;166252.22;;;15.53;36.99
41688;BME280;27371;42.686;23.362;2022-10-14T14:19:26;166242.84;;;15.50;36.87
41688;BME280;27371;42.686;23.362;2022-10-14T14:22:22;166241.53;;;15.49;36.73
41688;BME280;27371;42.686;23.362;2022-10-14T14:24:49;166221.41;;;15.42;37.02
41688;BME280;27371;42.686;23.362;2022-10-14T14:27:20;166212.00;;;15.38;37.44
41688;BME280;27371;42.686;23.362;2022-10-14T14:29:51;166209.34;;;15.37;36.91
41688;BME280;27371;42.686;23.362;2022-10-14T14:32:20;166183.91;;;15.27;37.21
41688;BME280;27371;42.686;23.362;2022-10-14T14:34:48;166217.38;;;15.40;37.75
41688;BME280;27371;42.686;23.362;2022-10-14T14:37:34;166193.25;;;15.31;38.36
41688;BME280;27371;42.686;23.362;2022-10-14T14:40:17;166175.81;;;15.24;38.35
41688;BME280;27371;42.686;23.362;2022-10-14T14:42:45;166171.81;;;15.23;38.46
41688;BME280;27371;42.686;23.362;2022-10-14T14:45:18;166174.47;;;15.24;39.01
41688;BME280;27371;42.686;23.362;2022-10-14T14:47:46;166163.78;;;15.20;39.37
41688;BME280;27371;42.686;23.362;2022-10-14T14:50:15;166159.75;;;15.18;39.00
41688;BME280;27371;42.686;23.362;2022-10-14T14:52:43;166094.09;;;14.93;39.12
41688;BME280;27371;42.686;23.362;2022-10-14T15:00:55;166115.53;;;15.01;39.46
41688;BME280;27371;42.686;23.362;2022-10-14T15:03:27;166127.63;;;15.06;39.97